SHMÚ vydal meteorologické výstrahy na Ground frost Display warnings

METAR

Aeronautical MET Report METAR

METAR description (Slovak)

25.09.2016 - 03:30 UTC

METAR LZIB 250330Z 35001KT CAVOK 09/07 Q1023=
METAR LZKZ 250330Z VRB02KT 9999 R01/1400D BCFG FEW001 08/08 Q1024=
METAR LZPP 250330Z AUTO 04004KT 9000 NCD 10/09 Q1023=
METAR LZSL 250330Z VRB01KT 0100 R36/0350N FG BKN001 07/06 Q1024=
METAR LZTT 250330Z 34001KT 4000 0500E BCFG OVC002 07/07 Q1024=
METAR LZZI 250330Z 08004KT 060V120 7000 BKN056 10/09 Q1024=

25.09.2016 - 03:00 UTC

METAR LZIB 250300Z 01002KT CAVOK 09/07 Q1023=
METAR LZKZ 250300Z VRB02KT 9999 BCFG FEW001 08/06 Q1024=
METAR LZPP 250300Z AUTO 03004KT 7000 NCD 09/09 Q1023=
METAR LZSL 250300Z 00000KT 0800 R36/0400N FG BKN001 07/06 Q1024=
METAR LZTT 250300Z 19001KT 0200 R27/0600N PRFG BKN003 OVC016 07/07
Q1024=
METAR LZZI 250300Z 10004KT 7000 BKN055 10/09 Q1024=

25.09.2016 - 03:00 UTC

METAR LZMC 250300Z 02002KT CAVOK 07/07 Q1024=
METAR LZPW 250300Z 00000KT 0200 FG OVC001 07/07 Q1024=

 

 

skok na menu ↑


skok na začiatok stránky ↑